Time;durP1;ratioP1;P1;durP2;ratioP2;P2;SDS_P1;SDS_P2;PMS_P1;PMS_P2;Temp;Humidity;BMP_temperature;BMP_pressure;BME280_temperature;BME280_humidity;BME280_pressure;Samples;Min_cycle;Max_cycle;Signal;HPM_P1;HPM_P2
2021/04/24 00:01:36;;;;;;;10.95;5.97;;;;;;;7.02;63.24;100945.59;1717509;83;21571;-85
2021/04/24 00:04:04;;;;;;;15.28;6.42;;;;;;;7.01;63.32;100949.14;1715163;83;21141;-85
2021/04/24 00:06:31;;;;;;;14.53;5.87;;;;;;;6.97;63.30;100948.87;1712411;83;21125;-85
2021/04/24 00:09:00;;;;;;;18.65;9.50;;;;;;;6.93;63.09;100938.14;1714767;83;21121;-85
2021/04/24 00:11:28;;;;;;;24.37;11.63;;;;;;;6.92;63.26;100940.39;1714368;83;21167;-85
2021/04/24 00:13:55;;;;;;;29.37;13.78;;;;;;;6.92;63.20;100936.45;1712557;82;21259;-85
2021/04/24 00:16:22;;;;;;;24.70;11.00;;;;;;;6.90;63.22;100936.98;1714835;83;21175;-85
2021/04/24 00:18:49;;;;;;;25.15;11.70;;;;;;;6.87;63.09;100943.67;1714804;83;21170;-85
2021/04/24 00:21:17;;;;;;;23.62;11.57;;;;;;;6.86;63.39;100942.45;1717166;83;21605;-85
2021/04/24 00:23:44;;;;;;;39.95;20.02;;;;;;;6.84;62.86;100946.91;1714674;83;21151;-85
2021/04/24 00:26:11;;;;;;;53.98;24.80;;;;;;;6.82;62.92;100947.00;1717133;83;21300;-85
2021/04/24 00:28:38;;;;;;;55.67;28.42;;;;;;;6.80;62.99;100945.74;1711057;83;21137;-85
2021/04/24 00:31:06;;;;;;;57.05;28.57;;;;;;;6.78;63.03;100944.98;1716490;83;21128;-84
2021/04/24 00:33:34;;;;;;;49.77;24.90;;;;;;;6.78;63.15;100941.52;1715294;83;21604;-85
2021/04/24 00:36:01;;;;;;;35.95;18.82;;;;;;;6.77;63.07;100939.33;1714821;83;22233;-85
2021/04/24 00:38:28;;;;;;;25.75;13.18;;;;;;;6.77;63.16;100937.17;1709355;83;21119;-85
2021/04/24 00:40:56;;;;;;;24.40;13.10;;;;;;;6.77;63.19;100939.79;1713027;82;21140;-85
2021/04/24 00:43:23;;;;;;;18.62;9.08;;;;;;;6.77;63.40;100936.70;1715396;82;21601;-85
2021/04/24 00:45:50;;;;;;;12.25;7.00;;;;;;;6.77;63.50;100935.39;1713375;83;21731;-85
2021/04/24 00:48:17;;;;;;;12.68;7.28;;;;;;;6.75;63.49;100933.32;1714720;83;21141;-85
2021/04/24 00:50:45;;;;;;;11.20;6.50;;;;;;;6.72;63.42;100931.31;1725733;83;21130;-84
2021/04/24 00:53:13;;;;;;;13.93;6.12;;;;;;;6.70;63.35;100931.36;1725511;83;21132;-84
2021/04/24 00:55:41;;;;;;;10.63;6.72;;;;;;;6.70;63.55;100935.77;1725607;82;21832;-85
2021/04/24 00:58:12;;;;;;;15.78;7.30;;;;;;;6.68;63.46;100929.72;1725482;82;21576;-84
2021/04/24 01:00:41;;;;;;;16.25;7.47;;;;;;;6.67;63.50;100930.19;1725549;82;21629;-85
2021/04/24 01:03:08;;;;;;;17.65;6.53;;;;;;;6.70;63.49;100937.92;1725417;83;21168;-85
2021/04/24 01:05:39;;;;;;;13.53;6.30;;;;;;;6.70;63.11;100922.18;1725534;83;21117;-85
2021/04/24 01:08:08;;;;;;;13.80;6.53;;;;;;;6.69;62.84;100923.11;1725211;83;21155;-85
2021/04/24 01:10:38;;;;;;;14.30;6.50;;;;;;;6.71;63.12;100923.03;1725607;83;21184;-85
2021/04/24 01:13:07;;;;;;;9.73;5.10;;;;;;;6.71;63.24;100920.41;1725884;82;21183;-85
2021/04/24 01:15:35;;;;;;;11.53;7.47;;;;;;;6.71;63.09;100923.91;1725401;83;21167;-85
2021/04/24 01:18:11;;;;;;;11.75;5.83;;;;;;;6.74;63.18;100924.20;1725392;82;21175;-85
2021/04/24 01:20:39;;;;;;;13.03;7.12;;;;;;;6.74;63.27;100923.73;1725525;82;21623;-85
2021/04/24 01:23:21;;;;;;;16.62;8.80;;;;;;;6.71;63.19;100920.41;1725444;82;21569;-85
2021/04/24 01:25:49;;;;;;;16.35;8.58;;;;;;;6.68;63.42;100926.67;1736674;82;21201;-83
2021/04/24 01:28:16;;;;;;;15.80;7.60;;;;;;;6.65;63.37;100918.09;1736284;82;21185;-83
2021/04/24 01:30:46;;;;;;;14.18;7.05;;;;;;;6.63;63.58;100921.24;1736484;82;21148;-83
2021/04/24 01:33:14;;;;;;;12.53;6.67;;;;;;;6.63;63.69;100916.84;1736338;82;21165;-83
2021/04/24 01:35:44;;;;;;;16.87;8.80;;;;;;;6.58;63.67;100913.57;1736351;82;21108;-82
2021/04/24 01:38:12;;;;;;;19.07;7.62;;;;;;;6.55;63.78;100914.59;1736230;82;21163;-83
2021/04/24 01:40:40;;;;;;;14.25;7.00;;;;;;;6.51;63.83;100912.16;1736383;82;21665;-83
2021/04/24 01:43:07;;;;;;;11.85;6.72;;;;;;;6.45;63.88;100906.77;1736447;82;21668;-83
2021/04/24 01:45:35;;;;;;;14.65;7.35;;;;;;;6.44;64.10;100908.13;1736562;82;21530;-83
2021/04/24 01:48:06;;;;;;;16.65;9.20;;;;;;;6.42;63.73;100898.19;1736249;82;21128;-83
2021/04/24 01:50:40;;;;;;;15.38;8.18;;;;;;;6.41;63.58;100899.09;1736320;82;21156;-83
2021/04/24 01:53:12;;;;;;;16.35;9.23;;;;;;;6.37;63.85;100898.38;1735861;81;21085;-83
2021/04/24 01:55:42;;;;;;;17.90;8.00;;;;;;;6.36;63.76;100895.84;1736485;82;21145;-84
2021/04/24 01:58:12;;;;;;;17.75;8.28;;;;;;;6.34;63.71;100895.44;1736009;82;21592;-84
2021/04/24 02:00:45;;;;;;;17.27;8.13;;;;;;;6.31;63.94;100906.06;1736321;82;21146;-84
2021/04/24 02:03:14;;;;;;;17.92;8.20;;;;;;;6.28;64.00;100904.88;1736537;82;21532;-84
2021/04/24 02:05:44;;;;;;;17.17;8.45;;;;;;;6.28;63.92;100898.33;1736559;82;21663;-83
2021/04/24 02:08:16;;;;;;;12.35;7.33;;;;;;;6.27;63.94;100901.03;1710534;81;21201;-84
2021/04/24 02:10:48;;;;;;;17.77;9.10;;;;;;;6.26;63.86;100898.03;1736173;81;21548;-84
2021/04/24 02:13:21;;;;;;;16.42;9.33;;;;;;;6.24;64.04;100893.31;1736593;82;21074;-84
2021/04/24 02:15:49;;;;;;;14.65;7.53;;;;;;;6.22;63.97;100893.83;1736567;82;21572;-85
2021/04/24 02:18:17;;;;;;;17.00;8.13;;;;;;;6.18;63.93;100893.12;1736345;82;21190;-85
2021/04/24 02:20:45;;;;;;;13.83;7.53;;;;;;;6.18;63.93;100890.97;1736276;82;21077;-84
2021/04/24 02:23:14;;;;;;;18.00;8.23;;;;;;;6.17;63.88;100894.52;1736261;82;21134;-85
2021/04/24 02:25:43;;;;;;;18.25;9.00;;;;;;;6.14;63.86;100890.25;1736454;82;21135;-84
2021/04/24 02:28:11;;;;;;;15.03;8.73;;;;;;;6.13;63.97;100886.41;1736421;82;21170;-85
2021/04/24 02:30:39;;;;;;;16.48;8.60;;;;;;;6.11;63.98;100884.69;1736630;82;21213;-85
2021/04/24 02:33:07;;;;;;;18.00;7.60;;;;;;;6.09;64.05;100887.86;1736333;82;21121;-85
2021/04/24 02:35:55;;;;;;;19.20;9.10;;;;;;;6.09;64.24;100887.02;1736402;82;21134;-85
2021/04/24 02:38:30;;;;;;;20.55;8.33;;;;;;;6.06;64.29;100886.69;1736460;82;21583;-84
2021/04/24 02:41:01;;;;;;;14.15;7.28;;;;;;;6.06;64.28;100876.20;1736600;81;21164;-85
2021/04/24 02:43:28;;;;;;;16.05;6.87;;;;;;;6.05;64.19;100876.25;1736252;82;21543;-85
2021/04/24 02:45:56;;;;;;;16.60;6.85;;;;;;;6.04;64.21;100879.34;1736378;82;21553;-85
2021/04/24 02:48:23;;;;;;;14.15;7.00;;;;;;;6.03;64.01;100878.96;1736295;82;21602;-85
2021/04/24 02:50:50;;;;;;;11.22;6.22;;;;;;;6.02;63.88;100876.39;1736342;82;21452;-85
2021/04/24 02:53:18;;;;;;;12.05;6.17;;;;;;;6.01;63.69;100871.61;1736196;82;21151;-85
2021/04/24 02:55:45;;;;;;;11.38;6.45;;;;;;;6.00;63.80;100866.45;1736321;82;21077;-85
2021/04/24 02:58:12;;;;;;;10.00;6.22;;;;;;;5.97;63.87;100871.37;1736302;82;21141;-85
2021/04/24 03:00:39;;;;;;;13.28;6.60;;;;;;;5.96;63.89;100865.75;1736475;82;21151;-85
2021/04/24 03:03:11;;;;;;;16.42;6.65;;;;;;;5.96;63.85;100867.52;1736169;82;21081;-85
2021/04/24 03:05:40;;;;;;;12.98;7.53;;;;;;;5.95;63.76;100867.95;1736454;82;21172;-85
2021/04/24 03:08:09;;;;;;;17.02;7.92;;;;;;;5.94;64.03;100859.72;1736270;82;21158;-85
2021/04/24 03:10:38;;;;;;;18.98;6.85;;;;;;;5.92;63.96;100861.52;1736392;82;21085;-85
2021/04/24 03:13:08;;;;;;;13.00;7.62;;;;;;;5.92;63.95;100861.97;1736272;82;21089;-85
2021/04/24 03:15:35;;;;;;;14.00;7.50;;;;;;;5.90;64.22;100870.38;1736316;82;21111;-85
2021/04/24 03:18:03;;;;;;;16.67;7.87;;;;;;;5.87;64.17;100866.97;1736166;83;21218;-84
2021/04/24 03:20:30;;;;;;;17.17;8.25;;;;;;;5.85;64.23;100868.80;1736476;82;21085;-84
2021/04/24 03:22:59;;;;;;;16.85;8.20;;;;;;;5.82;64.23;100871.58;1736441;82;21081;-85
2021/04/24 03:25:27;;;;;;;16.52;8.63;;;;;;;5.82;64.42;100873.31;1736529;82;21666;-84
2021/04/24 03:27:54;;;;;;;13.10;7.70;;;;;;;5.80;64.58;100876.48;1736380;82;21125;-84
2021/04/24 03:30:21;;;;;;;13.45;6.62;;;;;;;5.79;64.67;100878.69;1736481;82;21124;-84
2021/04/24 03:32:49;;;;;;;14.05;7.25;;;;;;;5.79;64.69;100874.76;1736489;82;21093;-85
2021/04/24 03:35:16;;;;;;;15.25;7.35;;;;;;;5.77;64.84;100876.15;1736596;82;21113;-85
2021/04/24 03:37:43;;;;;;;16.12;7.53;;;;;;;5.75;64.96;100880.59;1736375;82;21116;-84
2021/04/24 03:40:11;;;;;;;15.83;8.40;;;;;;;5.73;65.13;100877.21;1736521;82;21135;-85
2021/04/24 03:42:38;;;;;;;16.10;8.05;;;;;;;5.71;65.42;100876.41;1736376;82;21181;-85
2021/04/24 03:45:17;;;;;;;16.97;8.38;;;;;;;5.70;65.46;100881.27;1736526;82;21533;-85
2021/04/24 03:47:35;;;;;;;19.77;8.58;;;;;;;5.70;65.39;100884.35;1738066;81;21167;-85
2021/04/24 03:50:03;;;;;;;15.88;7.90;;;;;;;5.71;65.66;100887.35;1736498;82;21128;-85
2021/04/24 03:52:30;;;;;;;17.32;7.53;;;;;;;5.71;65.94;100882.12;1736474;82;21161;-84
2021/04/24 03:54:57;;;;;;;13.00;7.72;;;;;;;5.70;66.08;100885.66;1736572;82;21109;-85
2021/04/24 03:57:24;;;;;;;13.55;8.23;;;;;;;5.70;66.14;100883.05;1736535;82;21086;-85
2021/04/24 03:59:50;;;;;;;16.67;8.28;;;;;;;5.70;66.23;100882.58;1736570;82;21488;-85
2021/04/24 04:02:17;;;;;;;15.93;7.33;;;;;;;5.69;66.39;100883.94;1736459;82;21675;-84
2021/04/24 04:04:44;;;;;;;16.65;8.25;;;;;;;5.67;66.52;100888.41;1736495;82;21132;-85
2021/04/24 04:07:11;;;;;;;19.75;9.68;;;;;;;5.67;66.73;100884.48;1736490;82;21117;-85
2021/04/24 04:09:39;;;;;;;13.15;8.45;;;;;;;5.64;66.65;100886.30;1736503;82;21100;-85
2021/04/24 04:12:06;;;;;;;15.23;7.28;;;;;;;5.63;66.94;100886.39;1736267;82;21541;-85
2021/04/24 04:14:33;;;;;;;16.55;7.45;;;;;;;5.64;67.03;100892.00;1760032;81;21104;-85
2021/04/24 04:17:00;;;;;;;24.05;9.03;;;;;;;5.62;67.10;100886.81;1740474;82;21165;-85
2021/04/24 04:19:27;;;;;;;18.77;8.70;;;;;;;5.64;67.18;100893.31;1740910;82;21131;-85
2021/04/24 04:21:54;;;;;;;16.55;9.20;;;;;;;5.65;67.32;100891.08;1766620;81;21531;-85
2021/04/24 04:24:21;;;;;;;19.67;9.38;;;;;;;5.68;67.27;100887.48;1766798;81;21566;-85
2021/04/24 04:26:47;;;;;;;16.37;9.43;;;;;;;5.68;67.38;100892.72;1740446;82;21148;-85
2021/04/24 04:29:14;;;;;;;18.32;8.83;;;;;;;5.70;67.75;100889.59;1740678;82;21164;-85
2021/04/24 04:31:41;;;;;;;16.10;9.63;;;;;;;5.70;67.78;100886.51;1766724;81;21201;-85
2021/04/24 04:34:08;;;;;;;17.40;8.80;;;;;;;5.71;67.48;100883.42;1766853;81;21539;-85
2021/04/24 04:36:35;;;;;;;14.53;7.90;;;;;;;5.71;67.53;100883.42;1740454;82;21561;-85
2021/04/24 04:39:03;;;;;;;16.57;7.83;;;;;;;5.70;67.54;100879.96;1740949;82;21290;-85
2021/04/24 04:41:30;;;;;;;15.58;8.58;;;;;;;5.73;67.53;100883.76;1766802;81;21111;-85
2021/04/24 04:43:57;;;;;;;16.05;8.45;;;;;;;5.75;67.44;100879.28;1740709;82;21166;-85
2021/04/24 04:46:24;;;;;;;16.30;7.70;;;;;;;5.77;67.52;100881.86;1766706;81;21135;-85
2021/04/24 04:48:51;;;;;;;17.35;6.67;;;;;;;5.78;67.60;100883.55;1766594;81;21581;-85
2021/04/24 04:51:18;;;;;;;16.95;7.53;;;;;;;5.78;67.49;100887.47;1740605;82;21518;-85
2021/04/24 04:53:45;;;;;;;18.27;7.55;;;;;;;5.79;67.51;100886.55;1766718;81;21100;-85
2021/04/24 04:56:13;;;;;;;14.80;8.43;;;;;;;5.80;67.62;100883.88;1740672;82;21203;-85
2021/04/24 04:58:40;;;;;;;12.58;7.15;;;;;;;5.84;67.52;100889.83;1766627;81;21155;-85
2021/04/24 05:01:07;;;;;;;16.50;7.62;;;;;;;5.88;67.55;100888.77;1766659;81;21140;-85
2021/04/24 05:03:34;;;;;;;13.95;6.78;;;;;;;5.90;67.56;100884.78;1725154;82;21267;-85
2021/04/24 05:06:01;;;;;;;14.58;6.72;;;;;;;5.94;67.44;100882.45;1711208;84;21130;-85
2021/04/24 05:08:28;;;;;;;13.28;6.55;;;;;;;5.97;67.46;100882.31;1710969;84;21227;-85
2021/04/24 05:10:55;;;;;;;13.95;7.25;;;;;;;5.99;67.29;100887.00;1711153;84;21294;-84
2021/04/24 05:13:22;;;;;;;12.55;6.33;;;;;;;6.01;67.22;100880.78;1710152;84;21199;-85
2021/04/24 05:15:49;;;;;;;15.53;6.95;;;;;;;6.04;66.75;100885.05;1710667;84;21122;-85
2021/04/24 05:18:16;;;;;;;12.82;6.85;;;;;;;6.06;67.12;100884.06;1710637;84;21162;-85
2021/04/24 05:20:43;;;;;;;17.15;6.83;;;;;;;6.11;66.90;100883.84;1710555;84;21712;-85
2021/04/24 05:23:09;;;;;;;10.98;5.90;;;;;;;6.14;66.86;100889.41;1710576;84;21154;-85
2021/04/24 05:25:36;;;;;;;11.40;6.40;;;;;;;6.16;66.73;100883.66;1710584;84;21181;-85
2021/04/24 05:28:04;;;;;;;10.28;6.20;;;;;;;6.19;66.65;100884.36;1711426;82;21716;-85
2021/04/24 05:30:31;;;;;;;14.53;6.67;;;;;;;6.23;66.61;100885.91;1745940;81;21135;-85
2021/04/24 05:32:58;;;;;;;11.25;5.65;;;;;;;6.25;66.41;100884.09;1739512;82;21186;-85
2021/04/24 05:35:26;;;;;;;11.43;5.85;;;;;;;6.31;66.40;100879.00;1737900;82;21162;-84
2021/04/24 05:37:53;;;;;;;13.50;5.92;;;;;;;6.34;66.39;100884.95;1745606;81;21144;-85
2021/04/24 05:40:20;;;;;;;11.80;4.83;;;;;;;6.38;66.16;100888.28;1740726;81;21138;-85
2021/04/24 05:42:47;;;;;;;9.28;5.03;;;;;;;6.40;65.89;100885.14;1730482;83;21316;-85
2021/04/24 05:45:15;;;;;;;10.00;4.62;;;;;;;6.43;65.86;100886.31;1730606;83;21609;-85
2021/04/24 05:47:46;;;;;;;12.88;5.60;;;;;;;6.46;65.90;100891.41;1730702;83;21176;-85
2021/04/24 05:50:15;;;;;;;14.53;6.90;;;;;;;6.52;65.82;100891.59;1730555;82;21157;-85
2021/04/24 05:52:43;;;;;;;10.30;5.62;;;;;;;6.58;65.87;100892.59;1738483;82;21725;-85
2021/04/24 05:55:12;;;;;;;9.00;5.62;;;;;;;6.64;65.72;100890.16;1738580;82;21150;-85
2021/04/24 05:57:40;;;;;;;13.78;6.00;;;;;;;6.70;65.55;100890.70;1730328;82;21479;-84
2021/04/24 06:00:12;;;;;;;12.13;6.50;;;;;;;6.74;65.46;100888.32;1730955;82;21556;-85
2021/04/24 06:02:39;;;;;;;9.05;4.95;;;;;;;6.80;65.43;100888.03;1706378;82;21149;-85
2021/04/24 06:05:09;;;;;;;12.43;5.12;;;;;;;6.88;65.08;100889.00;1736035;82;21124;-85
2021/04/24 06:07:40;;;;;;;13.20;5.58;;;;;;;6.93;65.22;100884.83;1735747;82;21161;-85
2021/04/24 06:10:10;;;;;;;13.08;5.33;;;;;;;6.97;64.61;100887.21;1736038;82;21089;-85
2021/04/24 06:12:39;;;;;;;11.15;5.70;;;;;;;7.00;64.83;100887.06;1735734;82;21114;-85
2021/04/24 06:15:09;;;;;;;17.10;6.00;;;;;;;7.04;64.75;100888.64;1735914;82;21551;-85
2021/04/24 06:17:36;;;;;;;8.75;5.37;;;;;;;7.09;64.80;100891.49;1747551;82;21099;-85
2021/04/24 06:20:06;;;;;;;12.50;5.33;;;;;;;7.10;64.43;100887.47;1765755;79;21134;-85
2021/04/24 06:22:33;;;;;;;10.82;5.22;;;;;;;7.12;64.28;100887.41;1777885;79;21142;-85
2021/04/24 06:25:00;;;;;;;12.80;6.67;;;;;;;7.14;63.86;100895.60;1781178;79;21289;-85
2021/04/24 06:27:27;;;;;;;12.10;5.40;;;;;;;7.16;64.06;100896.83;1780946;79;21184;-85
2021/04/24 06:29:54;;;;;;;11.15;5.65;;;;;;;7.19;64.14;100890.95;1780928;80;21191;-86
2021/04/24 06:32:22;;;;;;;15.88;6.37;;;;;;;7.22;64.21;100890.81;1798891;79;21215;-85
2021/04/24 06:34:49;;;;;;;13.28;6.05;;;;;;;7.23;63.88;100889.03;1801055;79;21325;-85
2021/04/24 06:37:16;;;;;;;18.30;7.12;;;;;;;7.25;64.00;100892.44;1775227;79;21183;-85
2021/04/24 06:39:42;;;;;;;10.90;7.08;;;;;;;7.29;63.67;100896.60;1801187;79;21138;-85
2021/04/24 06:42:10;;;;;;;14.75;5.80;;;;;;;7.36;64.34;100891.42;1796586;79;21555;-85
2021/04/24 06:44:37;;;;;;;13.78;7.55;;;;;;;7.43;63.88;100888.87;1796140;80;21219;-85
2021/04/24 06:47:04;;;;;;;14.75;7.15;;;;;;;7.52;63.89;100894.13;1798321;79;21142;-85
2021/04/24 06:49:31;;;;;;;13.75;8.45;;;;;;;7.61;63.88;100898.08;1800802;79;21172;-85
2021/04/24 06:51:58;;;;;;;10.98;5.85;;;;;;;7.68;63.19;100893.73;1794777;79;21176;-85
2021/04/24 06:54:25;;;;;;;11.75;7.22;;;;;;;7.78;63.80;100887.55;1781179;80;21637;-85
2021/04/24 06:56:52;;;;;;;10.95;6.10;;;;;;;7.88;63.96;100884.81;1784383;79;21173;-85
2021/04/24 06:59:19;;;;;;;14.73;6.75;;;;;;;7.96;63.18;100883.96;1796206;80;21184;-85
2021/04/24 07:01:46;;;;;;;11.57;5.20;;;;;;;8.05;63.46;100878.66;1794721;79;21436;-86
2021/04/24 07:04:14;;;;;;;13.35;6.05;;;;;;;8.11;61.95;100879.66;1799824;79;21138;-85
2021/04/24 07:06:41;;;;;;;12.37;4.55;;;;;;;8.17;61.26;100877.17;1796053;80;21183;-85
2021/04/24 07:09:08;;;;;;;14.28;6.70;;;;;;;8.25;60.83;100882.85;1770759;79;21170;-86
2021/04/24 07:11:34;;;;;;;10.23;4.83;;;;;;;8.30;60.76;100871.63;1769397;81;21179;-85
2021/04/24 07:14:02;;;;;;;9.60;4.15;;;;;;;8.35;61.00;100874.84;1791090;79;21561;-85
2021/04/24 07:16:29;;;;;;;9.78;3.75;;;;;;;8.43;60.98;100876.63;1796203;79;21183;-85
2021/04/24 07:18:56;;;;;;;7.80;3.45;;;;;;;8.52;60.45;100870.47;1799282;79;21187;-85
2021/04/24 07:21:23;;;;;;;6.55;2.22;;;;;;;8.58;60.08;100867.03;1801057;79;21335;-85
2021/04/24 07:23:51;;;;;;;7.40;2.70;;;;;;;8.66;59.92;100861.36;1798171;79;21210;-85
2021/04/24 07:26:20;;;;;;;10.03;3.22;;;;;;;8.74;58.17;100864.87;1795896;80;21543;-85
2021/04/24 07:28:47;;;;;;;5.60;3.08;;;;;;;8.84;59.25;100865.57;1795968;79;21335;-85
2021/04/24 07:31:15;;;;;;;7.90;3.58;;;;;;;8.94;59.42;100860.63;1796011;80;21179;-85
2021/04/24 07:33:43;;;;;;;7.80;2.90;;;;;;;9.01;58.92;100865.92;1794979;79;21146;-84
2021/04/24 07:36:10;;;;;;;6.53;2.80;;;;;;;9.08;58.85;100856.76;1801101;79;21697;-85
2021/04/24 07:38:37;;;;;;;11.22;3.45;;;;;;;9.19;57.85;100864.50;1799794;79;21165;-84
2021/04/24 07:41:04;;;;;;;8.53;4.53;;;;;;;9.22;57.58;100865.16;1796117;80;21142;-84
2021/04/24 07:43:31;;;;;;;6.50;2.55;;;;;;;9.27;57.56;100867.05;1773592;79;21211;-84
2021/04/24 07:45:59;;;;;;;6.22;2.47;;;;;;;9.35;57.34;100869.25;1801372;79;21179;-84
2021/04/24 07:48:26;;;;;;;5.62;2.75;;;;;;;9.45;57.35;100869.55;1801757;79;21154;-85
2021/04/24 07:50:53;;;;;;;5.35;2.40;;;;;;;9.58;57.10;100869.20;1796929;79;21126;-85
2021/04/24 07:53:25;;;;;;;5.03;2.67;;;;;;;9.68;55.33;100871.66;1786427;79;21196;-85
2021/04/24 07:55:49;;;;;;;4.97;2.25;;;;;;;9.80;55.39;100877.48;1786302;79;21275;-85
2021/04/24 07:58:16;;;;;;;4.30;1.95;;;;;;;9.91;54.09;100874.22;1801901;79;21145;-85
2021/04/24 08:00:43;;;;;;;5.97;2.12;;;;;;;9.99;55.34;100869.78;1800943;78;21094;-85
2021/04/24 08:03:10;;;;;;;4.08;2.10;;;;;;;10.08;54.24;100874.50;1793980;78;21578;-85
2021/04/24 08:05:37;;;;;;;4.47;1.92;;;;;;;10.17;55.40;100875.25;1824015;78;21174;-85
2021/04/24 08:08:05;;;;;;;4.30;1.98;;;;;;;10.27;53.57;100868.97;1793624;78;21257;-85
2021/04/24 08:10:32;;;;;;;5.00;1.72;;;;;;;10.31;54.74;100877.90;1791051;78;21638;-85
2021/04/24 08:13:02;;;;;;;6.53;1.70;;;;;;;10.38;53.74;100873.08;1810965;79;21623;-85
2021/04/24 08:15:29;;;;;;;5.83;2.00;;;;;;;10.41;52.92;100870.73;1798618;78;21281;-86
2021/04/24 08:17:57;;;;;;;6.10;1.87;;;;;;;10.42;52.42;100871.94;1788385;80;21151;-85
2021/04/24 08:20:24;;;;;;;4.75;1.57;;;;;;;10.53;52.82;100866.84;1804509;79;21146;-86
2021/04/24 08:22:52;;;;;;;5.83;2.20;;;;;;;10.64;52.38;100871.91;1791823;79;21135;-85
2021/04/24 08:25:20;;;;;;;5.97;1.60;;;;;;;10.67;51.86;100867.27;1796922;79;21139;-85
2021/04/24 08:27:47;;;;;;;6.62;1.82;;;;;;;10.65;51.68;100865.19;1802796;79;21127;-85
2021/04/24 08:30:16;;;;;;;6.75;2.75;;;;;;;10.72;52.29;100865.17;1818352;79;21301;-85
2021/04/24 08:32:45;;;;;;;4.47;2.00;;;;;;;10.86;51.97;100860.78;1818381;79;21106;-85
2021/04/24 08:35:13;;;;;;;4.20;1.90;;;;;;;10.88;51.43;100862.86;1807814;79;21158;-85
2021/04/24 08:37:41;;;;;;;3.22;1.50;;;;;;;10.93;51.31;100865.58;1801797;79;21113;-85
2021/04/24 08:40:11;;;;;;;5.03;2.22;;;;;;;10.98;51.33;100865.27;1801982;79;21161;-85
2021/04/24 08:42:39;;;;;;;4.08;2.12;;;;;;;11.03;50.71;100862.70;1801697;79;21157;-85
2021/04/24 08:45:15;;;;;;;4.55;2.10;;;;;;;11.08;50.53;100856.27;1799769;79;21242;-85
2021/04/24 08:47:48;;;;;;;7.83;1.75;;;;;;;11.08;50.77;100854.47;1796984;79;21151;-85
2021/04/24 08:50:21;;;;;;;4.53;1.95;;;;;;;11.14;51.13;100857.19;1796857;79;21183;-85
2021/04/24 08:52:48;;;;;;;5.33;2.12;;;;;;;11.20;50.88;100854.14;1796982;80;21154;-85
2021/04/24 08:55:26;;;;;;;5.00;2.17;;;;;;;11.26;49.84;100859.02;1796758;79;21121;-86
2021/04/24 08:57:53;;;;;;;4.55;2.20;;;;;;;11.28;49.23;100858.42;1795501;79;21151;-84
2021/04/24 09:00:25;;;;;;;3.92;2.22;;;;;;;11.27;49.71;100851.45;1796985;79;21169;-85
2021/04/24 09:02:53;;;;;;;4.85;2.15;;;;;;;11.34;50.59;100854.53;1797351;79;21575;-89
2021/04/24 09:05:22;;;;;;;4.17;1.95;;;;;;;11.45;50.51;100855.96;1796890;79;21536;-89
2021/04/24 09:08:02;;;;;;;5.85;2.30;;;;;;;11.51;48.73;100854.23;1789412;79;21319;-84
2021/04/24 09:10:42;;;;;;;5.45;2.17;;;;;;;11.50;49.04;100846.78;1785519;79;21760;-84
2021/04/24 09:13:11;;;;;;;6.40;2.15;;;;;;;11.58;48.54;100844.95;1818338;79;21151;-84
2021/04/24 09:15:38;;;;;;;5.80;2.55;;;;;;;11.65;49.68;100843.58;1812748;79;21167;-84
2021/04/24 09:18:09;;;;;;;8.93;2.37;;;;;;;11.77;49.39;100840.54;1796704;80;21118;-86
2021/04/24 09:21:01;;;;;;;10.95;3.67;;;;;;;11.85;48.95;100843.55;1801008;79;21180;-85
2021/04/24 09:23:35;;;;;;;4.10;1.77;;;;;;;11.90;49.08;100845.86;1800685;79;21109;-87
2021/04/24 09:26:15;;;;;;;4.33;1.77;;;;;;;11.91;48.57;100842.25;1812766;78;21175;-85
2021/04/24 09:28:45;;;;;;;6.08;1.90;;;;;;;12.03;48.63;100837.91;1829224;78;21174;-85
2021/04/24 09:31:16;;;;;;;3.77;2.10;;;;;;;12.11;46.90;100831.14;1828717;78;21167;-85
2021/04/24 09:33:46;;;;;;;3.35;2.12;;;;;;;12.09;48.41;100834.36;1814801;78;21272;-86
2021/04/24 09:36:16;;;;;;;6.17;2.27;;;;;;;12.01;46.95;100825.26;1821481;78;21114;-85
2021/04/24 09:38:47;;;;;;;6.92;1.75;;;;;;;11.94;47.63;100833.66;1797709;79;21151;-85
2021/04/24 09:41:24;;;;;;;6.00;2.27;;;;;;;11.91;47.63;100825.94;1798634;79;21106;-86
2021/04/24 09:44:05;;;;;;;5.45;1.55;;;;;;;11.95;48.41;100828.72;1797875;79;21157;-86
2021/04/24 09:46:49;;;;;;;5.03;2.47;;;;;;;12.00;47.81;100827.55;1802846;79;21137;-85
2021/04/24 09:49:31;;;;;;;5.30;2.33;;;;;;;11.96;46.78;100825.59;1799535;77;21086;-85
2021/04/24 09:52:05;;;;;;;6.58;2.45;;;;;;;11.88;47.90;100822.18;1791801;79;21569;-85
2021/04/24 09:54:37;;;;;;;8.35;2.45;;;;;;;11.88;47.11;100824.83;1794689;79;21151;-85
2021/04/24 09:57:08;;;;;;;9.18;2.52;;;;;;;11.97;46.95;100815.38;1801657;79;21155;-85
2021/04/24 10:00:00;;;;;;;5.70;2.55;;;;;;;12.06;46.45;100822.67;1795828;79;21665;-85
2021/04/24 10:02:34;;;;;;;4.33;2.50;;;;;;;12.06;46.67;100821.34;1795663;79;21176;-84
2021/04/24 10:05:16;;;;;;;8.43;2.87;;;;;;;12.17;46.55;100808.66;1794519;78;21136;-84
2021/04/24 10:07:46;;;;;;;5.03;2.58;;;;;;;12.21;45.87;100806.20;1791181;78;21596;-84
2021/04/24 10:10:34;;;;;;;4.80;2.00;;;;;;;12.17;46.20;100809.98;1794108;79;21257;-84
2021/04/24 10:13:08;;;;;;;6.35;1.85;;;;;;;12.14;46.13;100811.53;1797073;79;21114;-84
2021/04/24 10:15:48;;;;;;;3.72;2.25;;;;;;;12.07;47.34;100802.34;1803558;79;21131;-85
2021/04/24 10:18:16;;;;;;;4.60;2.62;;;;;;;12.03;46.54;100806.17;1801421;78;21972;-85
2021/04/24 10:20:46;;;;;;;6.12;2.92;;;;;;;11.99;46.32;100801.58;1797512;79;21127;-85
2021/04/24 10:23:15;;;;;;;7.20;2.50;;;;;;;11.97;45.99;100800.83;1809831;79;21131;-85
2021/04/24 10:25:42;;;;;;;5.08;2.25;;;;;;;11.96;46.65;100794.70;1801304;78;21171;-85
2021/04/24 10:28:09;;;;;;;5.92;2.10;;;;;;;12.06;46.82;100798.86;1797354;79;21115;-85
2021/04/24 10:30:39;;;;;;;6.80;3.22;;;;;;;12.11;46.07;100791.45;1796329;79;21134;-85
2021/04/24 10:33:07;;;;;;;5.60;2.75;;;;;;;12.12;46.97;100792.30;1795350;79;21171;-85
2021/04/24 10:35:34;;;;;;;5.35;2.98;;;;;;;12.23;45.04;100790.19;1790854;79;21112;-85
2021/04/24 10:38:03;;;;;;;5.40;3.83;;;;;;;12.35;45.54;100777.41;1769922;80;21199;-85
2021/04/24 10:40:30;;;;;;;4.78;2.90;;;;;;;12.54;45.19;100776.43;1769202;80;21129;-85
2021/04/24 10:42:59;;;;;;;7.12;2.85;;;;;;;12.72;47.05;100774.69;1764028;80;21135;-84
2021/04/24 10:45:32;;;;;;;9.18;3.50;;;;;;;12.99;44.83;100767.31;1770570;80;21136;-85
2021/04/24 10:48:00;;;;;;;8.05;3.27;;;;;;;13.21;44.72;100770.99;1772190;80;21185;-86
2021/04/24 10:50:47;;;;;;;6.33;3.95;;;;;;;13.15;43.63;100767.84;1762976;80;21195;-86
2021/04/24 10:53:24;;;;;;;7.35;3.52;;;;;;;13.00;43.29;100770.34;1765783;80;21155;-86
2021/04/24 10:55:55;;;;;;;7.40;3.67;;;;;;;12.78;43.19;100768.94;1766281;80;21119;-86
2021/04/24 10:58:26;;;;;;;6.00;3.50;;;;;;;12.65;43.11;100769.84;1775230;80;21151;-85
2021/04/24 11:01:04;;;;;;;6.85;3.72;;;;;;;12.56;42.86;100760.42;1759285;81;21167;-86
2021/04/24 11:03:41;;;;;;;9.50;4.12;;;;;;;12.59;44.68;100760.19;1765123;80;21110;-85
2021/04/24 11:06:17;;;;;;;8.63;3.35;;;;;;;12.84;44.50;100756.09;1768429;80;21676;-85
2021/04/24 11:08:49;;;;;;;9.83;3.50;;;;;;;12.95;44.44;100760.56;1748548;80;21161;-84
2021/04/24 11:11:20;;;;;;;6.67;3.60;;;;;;;12.99;45.07;100754.06;1774933;80;21115;-84
2021/04/24 11:13:55;;;;;;;5.70;3.70;;;;;;;13.03;43.57;100757.33;1769856;79;21597;-85
2021/04/24 11:16:31;;;;;;;10.18;4.30;;;;;;;13.00;42.97;100757.59;1770874;80;21187;-85
2021/04/24 11:18:54;;;;;;;10.48;6.58;;;;;;;12.95;43.72;100750.45;1752246;80;21341;-85
2021/04/24 11:21:28;;;;;;;5.75;3.50;;;;;;;12.93;43.13;100751.87;1777658;80;21176;-84
2021/04/24 11:24:14;;;;;;;8.00;3.33;;;;;;;12.86;43.45;100748.85;1772321;80;21562;-85
2021/04/24 11:26:47;;;;;;;9.13;3.95;;;;;;;12.77;42.95;100750.05;1768412;80;21165;-85
2021/04/24 11:29:17;;;;;;;;;;;;;;;12.73;43.98;100754.70;1761962;80;21597;-84
2021/04/24 11:31:57;;;;;;;6.90;3.77;;;;;;;12.73;43.28;100752.54;1771097;81;20209;-84
2021/04/24 11:34:44;;;;;;;6.15;3.62;;;;;;;12.70;43.11;100750.99;1770597;80;21154;-84
2021/04/24 11:37:23;;;;;;;11.10;3.58;;;;;;;12.64;43.38;100748.31;1771654;81;21118;-85